Station Historical Data
Daily Summary for March 23, 2012 Units:  Both    English   Metric
« Previous Day
Next Day »
Daily Weekly Monthly Yearly Custom
  High: Low: Average:
Temperature: 77.7 °F /  25.4 °C 59.2 °F /  15.1 °C 67.2 °F /  19.6 °C
Dew Point: 65.1 °F /  18.4 °C 46.4 °F /  8 °C 56.8 °F /  13.8 °C
Humidity: 95% 40% 73%
Wind Speed: 17.0mph /  27.4km/h - 6.5mph /  10.5km/h
Wind Gust: 19.0mph /  30.6km/h - -
Wind- - South
Pressure: 30.00 in /  1015.8 hPa 29.80 in /  1009 hPa -
Precipitation: 0.03 in /  0.76 mm    
Historical Graphs
 
 
Tabular Data for March 23, 2012
Time Temperature Dew Point Pressure Wind Wind Speed Wind Gust Humidity Rainfall Rate (Hourly) Conditions
00:00 62.1 °F /  16.7 °C 59.8 °F /  15.4 °C 30.00in /  1015.8hPa SE 4.0mph /  6.4km/h 6.0mph /  9.7km/h 92% 0.00in /  0mm
00:05 62.1 °F /  16.7 °C 59.8 °F /  15.4 °C 30.00in /  1015.8hPa SE 7.0mph /  11.3km/h 8.0mph /  12.9km/h 92% 0.00in /  0mm
00:10 62.2 °F /  16.8 °C 59.8 °F /  15.4 °C 30.00in /  1015.8hPa SE 11.0mph /  17.7km/h 11.0mph /  17.7km/h 92% 0.00in /  0mm
00:15 62.4 °F /  16.9 °C 60.0 °F /  15.6 °C 30.00in /  1015.8hPa SE 5.0mph /  8km/h 11.0mph /  17.7km/h 92% 0.00in /  0mm
00:20 62.4 °F /  16.9 °C 60.0 °F /  15.6 °C 30.00in /  1015.8hPa ESE 5.0mph /  8km/h 10.0mph /  16.1km/h 92% 0.00in /  0mm
00:25 62.4 °F /  16.9 °C 60.0 °F /  15.6 °C 30.00in /  1015.8hPa ESE 8.0mph /  12.9km/h 11.0mph /  17.7km/h 92% 0.00in /  0mm
00:30 62.4 °F /  16.9 °C 60.0 °F /  15.6 °C 30.00in /  1015.8hPa ESE 11.0mph /  17.7km/h 11.0mph /  17.7km/h 92% 0.00in /  0mm
00:36 62.5 °F /  16.9 °C 59.8 °F /  15.4 °C 30.00in /  1015.8hPa SSE 11.0mph /  17.7km/h 11.0mph /  17.7km/h 91% 0.00in /  0mm
00:41 62.5 °F /  16.9 °C 59.8 °F /  15.4 °C 30.00in /  1015.8hPa SE 8.0mph /  12.9km/h 12.0mph /  19.3km/h 91% 0.00in /  0mm
00:46 62.5 °F /  16.9 °C 59.8 °F /  15.4 °C 29.99in /  1015.5hPa SE 8.0mph /  12.9km/h 13.0mph /  20.9km/h 91% 0.00in /  0mm
00:51 62.4 °F /  16.9 °C 59.7 °F /  15.4 °C 30.00in /  1015.8hPa SSE 6.0mph /  9.7km/h 12.0mph /  19.3km/h 91% 0.00in /  0mm
00:56 62.4 °F /  16.9 °C 60.0 °F /  15.6 °C 30.00in /  1015.8hPa SE 8.0mph /  12.9km/h 10.0mph /  16.1km/h 92% 0.00in /  0mm
01:01 62.4 °F /  16.9 °C 60.0 °F /  15.6 °C 30.00in /  1015.8hPa SE 9.0mph /  14.5km/h 10.0mph /  16.1km/h 92% 0.00in /  0mm
01:06 62.4 °F /  16.9 °C 60.0 °F /  15.6 °C 30.00in /  1015.8hPa SE 6.0mph /  9.7km/h 10.0mph /  16.1km/h 92% 0.00in /  0mm
01:11 62.4 °F /  16.9 °C 60.0 °F /  15.6 °C 30.00in /  1015.8hPa SE 10.0mph /  16.1km/h 11.0mph /  17.7km/h 92% 0.00in /  0mm
01:16 62.4 °F /  16.9 °C 60.0 °F /  15.6 °C 30.00in /  1015.8hPa ESE 8.0mph /  12.9km/h 12.0mph /  19.3km/h 92% 0.00in /  0mm
01:21 62.4 °F /  16.9 °C 60.0 °F /  15.6 °C 30.00in /  1015.8hPa SE 6.0mph /  9.7km/h 12.0mph /  19.3km/h 92% 0.00in /  0mm
01:26 62.4 °F /  16.9 °C 60.0 °F /  15.6 °C 30.00in /  1015.8hPa ESE 5.0mph /  8km/h 7.0mph /  11.3km/h 92% 0.00in /  0mm
01:31 62.3 °F /  16.8 °C 60.0 °F /  15.6 °C 29.99in /  1015.5hPa East 6.0mph /  9.7km/h 7.0mph /  11.3km/h 92% 0.00in /  0mm
01:36 62.3 °F /  16.8 °C 60.0 °F /  15.6 °C 29.99in /  1015.5hPa SSE 7.0mph /  11.3km/h 8.0mph /  12.9km/h 92% 0.00in /  0mm
01:41 62.3 °F /  16.8 °C 60.0 °F /  15.6 °C 29.99in /  1015.5hPa ESE 5.0mph /  8km/h 8.0mph /  12.9km/h 92% 0.00in /  0mm
01:46 62.3 °F /  16.8 °C 60.0 °F /  15.6 °C 29.99in /  1015.5hPa SSE 6.0mph /  9.7km/h 9.0mph /  14.5km/h 92% 0.00in /  0mm
01:51 62.3 °F /  16.8 °C 60.0 °F /  15.6 °C 29.99in /  1015.5hPa SE 7.0mph /  11.3km/h 8.0mph /  12.9km/h 92% 0.00in /  0mm
01:56 62.4 °F /  16.9 °C 60.0 °F /  15.6 °C 29.99in /  1015.5hPa SE 7.0mph /  11.3km/h 11.0mph /  17.7km/h 92% 0.00in /  0mm
02:01 62.4 °F /  16.9 °C 60.0 °F /  15.6 °C 29.99in /  1015.5hPa SE 6.0mph /  9.7km/h 10.0mph /  16.1km/h 92% 0.00in /  0mm
02:06 62.4 °F /  16.9 °C 60.0 °F /  15.6 °C 29.99in /  1015.5hPa SE 5.0mph /  8km/h 8.0mph /  12.9km/h 92% 0.00in /  0mm
02:11 62.4 °F /  16.9 °C 60.0 °F /  15.6 °C 29.99in /  1015.5hPa SE 6.0mph /  9.7km/h 7.0mph /  11.3km/h 92% 0.00in /  0mm
02:16 62.4 °F /  16.9 °C 60.0 °F /  15.6 °C 29.99in /  1015.5hPa SE 4.0mph /  6.4km/h 8.0mph /  12.9km/h 92% 0.00in /  0mm
02:21 62.4 °F /  16.9 °C 60.0 °F /  15.6 °C 29.99in /  1015.5hPa ESE 6.0mph /  9.7km/h 8.0mph /  12.9km/h 92% 0.00in /  0mm
02:26 62.4 °F /  16.9 °C 60.0 °F /  15.6 °C 29.99in /  1015.5hPa SE 7.0mph /  11.3km/h 8.0mph /  12.9km/h 92% 0.00in /  0mm
02:31 62.3 °F /  16.8 °C 60.0 °F /  15.6 °C 29.98in /  1015.1hPa SSE 5.0mph /  8km/h 8.0mph /  12.9km/h 92% 0.00in /  0mm
02:37 62.3 °F /  16.8 °C 60.0 °F /  15.6 °C 29.98in /  1015.1hPa ESE 6.0mph /  9.7km/h 8.0mph /  12.9km/h 92% 0.00in /  0mm
02:42 62.3 °F /  16.8 °C 60.0 °F /  15.6 °C 29.98in /  1015.1hPa SE 8.0mph /  12.9km/h 8.0mph /  12.9km/h 92% 0.00in /  0mm
02:47 62.2 °F /  16.8 °C 59.8 °F /  15.4 °C 29.98in /  1015.1hPa SE 5.0mph /  8km/h 7.0mph /  11.3km/h 92% 0.00in /  0mm
02:52 62.0 °F /  16.7 °C 59.7 °F /  15.4 °C 29.99in /  1015.5hPa SE 3.0mph /  4.8km/h 9.0mph /  14.5km/h 92% 0.00in /  0mm
02:57 61.8 °F /  16.6 °C 59.5 °F /  15.3 °C 29.99in /  1015.5hPa ESE 3.0mph /  4.8km/h 6.0mph /  9.7km/h 92% 0.00in /  0mm
03:02 61.7 °F /  16.5 °C 59.7 °F /  15.4 °C 29.99in /  1015.5hPa SE 3.0mph /  4.8km/h 5.0mph /  8km/h 93% 0.00in /  0mm
03:07 61.6 °F /  16.4 °C 59.6 °F /  15.3 °C 29.99in /  1015.5hPa SE 3.0mph /  4.8km/h 5.0mph /  8km/h 93% 0.00in /  0mm
03:12 61.6 °F /  16.4 °C 59.6 °F /  15.3 °C 29.99in /  1015.5hPa ESE 4.0mph /  6.4km/h 6.0mph /  9.7km/h 93% 0.00in /  0mm
03:17 61.4 °F /  16.3 °C 59.4 °F /  15.2 °C 29.99in /  1015.5hPa SE 5.0mph /  8km/h 5.0mph /  8km/h 93% 0.00in /  0mm
03:22 61.2 °F /  16.2 °C 59.2 °F /  15.1 °C 29.98in /  1015.1hPa ESE 5.0mph /  8km/h 5.0mph /  8km/h 93% 0.00in /  0mm
03:27 61.0 °F /  16.1 °C 59.0 °F /  15 °C 29.98in /  1015.1hPa ESE 2.0mph /  3.2km/h 4.0mph /  6.4km/h 93% 0.00in /  0mm
03:32 60.9 °F /  16.1 °C 58.9 °F /  14.9 °C 29.98in /  1015.1hPa SE 3.0mph /  4.8km/h 5.0mph /  8km/h 93% 0.00in /  0mm
03:37 60.8 °F /  16 °C 58.8 °F /  14.9 °C 29.98in /  1015.1hPa ESE 1.0mph /  1.6km/h 3.0mph /  4.8km/h 93% 0.00in /  0mm
03:42 60.8 °F /  16 °C 59.1 °F /  15.1 °C 29.98in /  1015.1hPa ESE 4.0mph /  6.4km/h 4.0mph /  6.4km/h 94% 0.00in /  0mm
03:47 60.8 °F /  16 °C 59.1 °F /  15.1 °C 29.97in /  1014.8hPa ESE 1.0mph /  1.6km/h 3.0mph /  4.8km/h 94% 0.00in /  0mm
03:52 60.7 °F /  15.9 °C 59.0 °F /  15 °C 29.97in /  1014.8hPa ESE 2.0mph /  3.2km/h 2.0mph /  3.2km/h 94% 0.00in /  0mm
03:57 60.6 °F /  15.9 °C 58.9 °F /  14.9 °C 29.97in /  1014.8hPa SE 1.0mph /  1.6km/h 2.0mph /  3.2km/h 94% 0.00in /  0mm
04:02 60.7 °F /  15.9 °C 59.0 °F /  15 °C 29.96in /  1014.4hPa ESE 2.0mph /  3.2km/h 2.0mph /  3.2km/h 94% 0.00in /  0mm
04:07 60.8 °F /  16 °C 59.1 °F /  15.1 °C 29.96in /  1014.4hPa ESE 2.0mph /  3.2km/h 3.0mph /  4.8km/h 94% 0.00in /  0mm
04:12 60.9 °F /  16.1 °C 59.2 °F /  15.1 °C 29.97in /  1014.8hPa ESE 1.0mph /  1.6km/h 3.0mph /  4.8km/h 94% 0.00in /  0mm
04:17 60.9 °F /  16.1 °C 59.2 °F /  15.1 °C 29.97in /  1014.8hPa SE 1.0mph /  1.6km/h 2.0mph /  3.2km/h 94% 0.00in /  0mm
04:22 61.0 °F /  16.1 °C 59.3 °F /  15.2 °C 29.96in /  1014.4hPa East 1.0mph /  1.6km/h 3.0mph /  4.8km/h 94% 0.00in /  0mm
04:27 61.0 °F /  16.1 °C 59.3 °F /  15.2 °C 29.97in /  1014.8hPa SSE 1.0mph /  1.6km/h 1.0mph /  1.6km/h 94% 0.00in /  0mm
04:32 61.0 °F /  16.1 °C 59.3 °F /  15.2 °C 29.96in /  1014.4hPa Calm   2.0mph /  3.2km/h 94% 0.00in /  0mm
04:37 60.9 °F /  16.1 °C 59.2 °F /  15.1 °C 29.96in /  1014.4hPa Calm   1.0mph /  1.6km/h 94% 0.00in /  0mm
04:43 60.7 °F /  15.9 °C 59.0 °F /  15 °C 29.96in /  1014.4hPa Calm   1.0mph /  1.6km/h 94% 0.00in /  0mm
04:48 60.6 °F /  15.9 °C 58.9 °F /  14.9 °C 29.96in /  1014.4hPa Calm     94% 0.00in /  0mm
04:53 60.6 °F /  15.9 °C 58.9 °F /  14.9 °C 29.95in /  1014.1hPa Calm   1.0mph /  1.6km/h 94% 0.00in /  0mm
04:58 60.6 °F /  15.9 °C 58.9 °F /  14.9 °C 29.96in /  1014.4hPa SE 1.0mph /  1.6km/h 1.0mph /  1.6km/h 94% 0.00in /  0mm
05:03 60.6 °F /  15.9 °C 58.9 °F /  14.9 °C 29.96in /  1014.4hPa ESE 1.0mph /  1.6km/h 1.0mph /  1.6km/h 94% 0.00in /  0mm
05:08 60.6 °F /  15.9 °C 58.9 °F /  14.9 °C 29.96in /  1014.4hPa ESE 1.0mph /  1.6km/h 3.0mph /  4.8km/h 94% 0.00in /  0mm
05:13 60.6 °F /  15.9 °C 58.9 °F /  14.9 °C 29.95in /  1014.1hPa ESE 3.0mph /  4.8km/h 3.0mph /  4.8km/h 94% 0.00in /  0mm
05:18 60.6 °F /  15.9 °C 58.9 °F /  14.9 °C 29.95in /  1014.1hPa ESE 2.0mph /  3.2km/h 4.0mph /  6.4km/h 94% 0.00in /  0mm
05:23 60.5 °F /  15.8 °C 58.8 °F /  14.9 °C 29.95in /  1014.1hPa ESE 4.0mph /  6.4km/h 5.0mph /  8km/h 94% 0.00in /  0mm
05:28 60.4 °F /  15.8 °C 58.7 °F /  14.8 °C 29.95in /  1014.1hPa ESE 3.0mph /  4.8km/h 4.0mph /  6.4km/h 94% 0.00in /  0mm
05:33 60.4 °F /  15.8 °C 58.7 °F /  14.8 °C 29.95in /  1014.1hPa ESE 4.0mph /  6.4km/h 5.0mph /  8km/h 94% 0.00in /  0mm
05:38 60.4 °F /  15.8 °C 58.7 °F /  14.8 °C 29.96in /  1014.4hPa SE 4.0mph /  6.4km/h 6.0mph /  9.7km/h 94% 0.00in /  0mm
05:43 60.6 °F /  15.9 °C 58.9 °F /  14.9 °C 29.96in /  1014.4hPa SE 3.0mph /  4.8km/h 4.0mph /  6.4km/h 94% 0.00in /  0mm
05:48 60.7 °F /  15.9 °C 59.0 °F /  15 °C 29.96in /  1014.4hPa SE 2.0mph /  3.2km/h 5.0mph /  8km/h 94% 0.00in /  0mm
05:53 60.9 °F /  16.1 °C 59.2 °F /  15.1 °C 29.95in /  1014.1hPa SE 6.0mph /  9.7km/h 6.0mph /  9.7km/h 94% 0.00in /  0mm
05:58 60.9 °F /  16.1 °C 59.2 °F /  15.1 °C 29.95in /  1014.1hPa SE 4.0mph /  6.4km/h 6.0mph /  9.7km/h 94% 0.00in /  0mm
06:03 61.0 °F /  16.1 °C 59.3 °F /  15.2 °C 29.95in /  1014.1hPa SE 4.0mph /  6.4km/h 6.0mph /  9.7km/h 94% 0.00in /  0mm
06:08 61.0 °F /  16.1 °C 59.3 °F /  15.2 °C 29.95in /  1014.1hPa ESE 6.0mph /  9.7km/h 6.0mph /  9.7km/h 94% 0.00in /  0mm
06:13 60.9 °F /  16.1 °C 59.2 °F /  15.1 °C 29.95in /  1014.1hPa ESE 3.0mph /  4.8km/h 5.0mph /  8km/h 94% 0.00in /  0mm
06:18 60.9 °F /  16.1 °C 59.2 °F /  15.1 °C 29.95in /  1014.1hPa ESE 4.0mph /  6.4km/h 5.0mph /  8km/h 94% 0.00in /  0mm
06:23 61.0 °F /  16.1 °C 59.6 °F /  15.3 °C 29.95in /  1014.1hPa ESE 4.0mph /  6.4km/h 8.0mph /  12.9km/h 95% 0.00in /  0mm
06:28 61.1 °F /  16.2 °C 59.7 °F /  15.4 °C 29.95in /  1014.1hPa SE 3.0mph /  4.8km/h 6.0mph /  9.7km/h 95% 0.00in /  0mm
06:33 61.2 °F /  16.2 °C 59.8 °F /  15.4 °C 29.95in /  1014.1hPa ESE 4.0mph /  6.4km/h 6.0mph /  9.7km/h 95% 0.00in /  0mm
06:39 61.3 °F /  16.3 °C 59.9 °F /  15.5 °C 29.95in /  1014.1hPa SE 5.0mph /  8km/h 5.0mph /  8km/h 95% 0.00in /  0mm
06:44 61.4 °F /  16.3 °C 60.0 °F /  15.6 °C 29.94in /  1013.8hPa SE 3.0mph /  4.8km/h 4.0mph /  6.4km/h 95% 0.00in /  0mm
06:49 61.4 °F /  16.3 °C 60.0 °F /  15.6 °C 29.94in /  1013.8hPa SE 2.0mph /  3.2km/h 4.0mph /  6.4km/h 95% 0.00in /  0mm
06:54 61.4 °F /  16.3 °C 60.0 °F /  15.6 °C 29.95in /  1014.1hPa SE 5.0mph /  8km/h 6.0mph /  9.7km/h 95% 0.00in /  0mm
06:59 61.4 °F /  16.3 °C 59.7 °F /  15.4 °C 29.95in /  1014.1hPa SSE 4.0mph /  6.4km/h 4.0mph /  6.4km/h 94% 0.00in /  0mm
07:04 61.4 °F /  16.3 °C 59.7 °F /  15.4 °C 29.95in /  1014.1hPa South 2.0mph /  3.2km/h 3.0mph /  4.8km/h 94% 0.00in /  0mm
07:09 61.4 °F /  16.3 °C 59.7 °F /  15.4 °C 29.95in /  1014.1hPa South 1.0mph /  1.6km/h 2.0mph /  3.2km/h 94% 0.00in /  0mm
07:14 61.3 °F /  16.3 °C 59.9 °F /  15.5 °C 29.95in /  1014.1hPa SE 2.0mph /  3.2km/h 3.0mph /  4.8km/h 95% 0.00in /  0mm
07:19 61.4 °F /  16.3 °C 60.0 °F /  15.6 °C 29.95in /  1014.1hPa SSE 3.0mph /  4.8km/h 7.0mph /  11.3km/h 95% 0.14in /  3.56mm
07:24 61.6 °F /  16.4 °C 60.2 °F /  15.7 °C 29.95in /  1014.1hPa SE 2.0mph /  3.2km/h 4.0mph /  6.4km/h 95% 0.06in /  1.52mm
07:29 61.7 °F /  16.5 °C 60.3 °F /  15.7 °C 29.95in /  1014.1hPa SE 2.0mph /  3.2km/h 4.0mph /  6.4km/h 95% 0.04in /  1.02mm
07:34 61.7 °F /  16.5 °C 60.3 °F /  15.7 °C 29.95in /  1014.1hPa SE 4.0mph /  6.4km/h 5.0mph /  8km/h 95% 0.00in /  0mm
07:39 61.8 °F /  16.6 °C 60.4 °F /  15.8 °C 29.95in /  1014.1hPa SSE 1.0mph /  1.6km/h 4.0mph /  6.4km/h 95% 0.00in /  0mm
07:44 61.8 °F /  16.6 °C 60.4 °F /  15.8 °C 29.95in /  1014.1hPa South 4.0mph /  6.4km/h 7.0mph /  11.3km/h 95% 0.00in /  0mm
07:49 61.9 °F /  16.6 °C 60.5 °F /  15.8 °C 29.95in /  1014.1hPa SE 6.0mph /  9.7km/h 7.0mph /  11.3km/h 95% 0.00in /  0mm
07:54 62.0 °F /  16.7 °C 60.6 °F /  15.9 °C 29.95in /  1014.1hPa SSE 3.0mph /  4.8km/h 7.0mph /  11.3km/h 95% 0.00in /  0mm
07:59 62.0 °F /  16.7 °C 60.6 °F /  15.9 °C 29.95in /  1014.1hPa SE 8.0mph /  12.9km/h 9.0mph /  14.5km/h 95% 0.00in /  0mm
08:04 62.1 °F /  16.7 °C 60.7 °F /  15.9 °C 29.95in /  1014.1hPa SE 10.0mph /  16.1km/h 10.0mph /  16.1km/h 95% 0.00in /  0mm
08:09 62.2 °F /  16.8 °C 60.8 °F /  16 °C 29.95in /  1014.1hPa SE 4.0mph /  6.4km/h 8.0mph /  12.9km/h 95% 0.00in /  0mm
08:14 62.2 °F /  16.8 °C 60.8 °F /  16 °C 29.95in /  1014.1hPa SE 4.0mph /  6.4km/h 9.0mph /  14.5km/h 95% 0.00in /  0mm
08:19 62.2 °F /  16.8 °C 60.8 °F /  16 °C 29.95in /  1014.1hPa SSE 5.0mph /  8km/h 7.0mph /  11.3km/h 95% 0.00in /  0mm
08:24 62.2 °F /  16.8 °C 60.8 °F /  16 °C 29.95in /  1014.1hPa SSE 5.0mph /  8km/h 7.0mph /  11.3km/h 95% 0.00in /  0mm
08:29 62.2 °F /  16.8 °C 60.5 °F /  15.8 °C 29.95in /  1014.1hPa ESE 5.0mph /  8km/h 6.0mph /  9.7km/h 94% 0.00in /  0mm
08:34 62.2 °F /  16.8 °C 60.5 °F /  15.8 °C 29.95in /  1014.1hPa SE 5.0mph /  8km/h 5.0mph /  8km/h 94% 0.00in /  0mm
08:39 62.2 °F /  16.8 °C 60.5 °F /  15.8 °C 29.95in /  1014.1hPa SSE 3.0mph /  4.8km/h 6.0mph /  9.7km/h 94% 0.00in /  0mm
08:44 62.2 °F /  16.8 °C 60.5 °F /  15.8 °C 29.95in /  1014.1hPa SE 8.0mph /  12.9km/h 8.0mph /  12.9km/h 94% 0.00in /  0mm
08:49 62.3 °F /  16.8 °C 60.6 °F /  15.9 °C 29.95in /  1014.1hPa ESE 7.0mph /  11.3km/h 8.0mph /  12.9km/h 94% 0.00in /  0mm
08:54 62.3 °F /  16.8 °C 60.6 °F /  15.9 °C 29.95in /  1014.1hPa SE 7.0mph /  11.3km/h 9.0mph /  14.5km/h 94% 0.00in /  0mm
08:59 62.5 °F /  16.9 °C 60.8 °F /  16 °C 29.95in /  1014.1hPa SE 10.0mph /  16.1km/h 12.0mph /  19.3km/h 94% 0.00in /  0mm
09:04 62.6 °F /  17 °C 60.8 °F /  16 °C 29.95in /  1014.1hPa ESE 8.0mph /  12.9km/h 11.0mph /  17.7km/h 94% 0.00in /  0mm
09:09 62.7 °F /  17.1 °C 61.0 °F /  16.1 °C 29.95in /  1014.1hPa SE 9.0mph /  14.5km/h 10.0mph /  16.1km/h 94% 0.00in /  0mm
09:15 62.8 °F /  17.1 °C 61.0 °F /  16.1 °C 29.95in /  1014.1hPa SE 4.0mph /  6.4km/h 9.0mph /  14.5km/h 94% 0.00in /  0mm
09:20 62.9 °F /  17.2 °C 61.2 °F /  16.2 °C 29.95in /  1014.1hPa SSE 6.0mph /  9.7km/h 11.0mph /  17.7km/h 94% 0.00in /  0mm
09:25 63.2 °F /  17.3 °C 61.5 °F /  16.4 °C 29.95in /  1014.1hPa SE 7.0mph /  11.3km/h 11.0mph /  17.7km/h 94% 0.00in /  0mm
09:30 63.4 °F /  17.4 °C 61.7 °F /  16.5 °C 29.95in /  1014.1hPa SE 6.0mph /  9.7km/h 10.0mph /  16.1km/h 94% 0.00in /  0mm
09:35 63.6 °F /  17.6 °C 61.8 °F /  16.6 °C 29.95in /  1014.1hPa SE 8.0mph /  12.9km/h 12.0mph /  19.3km/h 94% 0.00in /  0mm
09:40 64.1 °F /  17.8 °C 62.3 °F /  16.8 °C 29.96in /  1014.4hPa SSE 5.0mph /  8km/h 14.0mph /  22.5km/h 94% 0.00in /  0mm
09:45 64.7 °F /  18.2 °C 62.6 °F /  17 °C 29.96in /  1014.4hPa South 10.0mph /  16.1km/h 13.0mph /  20.9km/h 93% 0.00in /  0mm
09:50 64.9 °F /  18.3 °C 62.8 °F /  17.1 °C 29.95in /  1014.1hPa SE 6.0mph /  9.7km/h 10.0mph /  16.1km/h 93% 0.00in /  0mm
09:55 65.1 °F /  18.4 °C 62.7 °F /  17.1 °C 29.96in /  1014.4hPa SSE 14.0mph /  22.5km/h 14.0mph /  22.5km/h 92% 0.00in /  0mm
10:00 65.3 °F /  18.5 °C 62.9 °F /  17.2 °C 29.96in /  1014.4hPa SSE 7.0mph /  11.3km/h 13.0mph /  20.9km/h 92% 0.00in /  0mm
10:05 65.3 °F /  18.5 °C 62.6 °F /  17 °C 29.95in /  1014.1hPa SSE 8.0mph /  12.9km/h 12.0mph /  19.3km/h 91% 0.00in /  0mm
10:07 65.4 °F /  18.6 °C 63.0 °F /  17.2 °C 29.95in /  1014.1hPa SSE 6.0mph /  9.7km/h 12.0mph /  19.3km/h 92% 0.00in /  0mm
10:12 65.9 °F /  18.8 °C 63.5 °F /  17.5 °C 29.95in /  1014.1hPa South 9.0mph /  14.5km/h 9.0mph /  14.5km/h 92% 0.00in /  0mm
10:17 66.0 °F /  18.9 °C 63.3 °F /  17.4 °C 29.95in /  1014.1hPa SE 9.0mph /  14.5km/h 11.0mph /  17.7km/h 91% 0.00in /  0mm
10:22 66.2 °F /  19 °C 63.5 °F /  17.5 °C 29.95in /  1014.1hPa SSE 7.0mph /  11.3km/h 11.0mph /  17.7km/h 91% 0.00in /  0mm
10:27 66.6 °F /  19.2 °C 63.6 °F /  17.6 °C 29.95in /  1014.1hPa SSW 10.0mph /  16.1km/h 12.0mph /  19.3km/h 90% 0.00in /  0mm
10:32 66.5 °F /  19.2 °C 63.2 °F /  17.3 °C 29.96in /  1014.4hPa South 7.0mph /  11.3km/h 13.0mph /  20.9km/h 89% 0.00in /  0mm
10:38 66.2 °F /  19 °C 63.2 °F /  17.3 °C 29.96in /  1014.4hPa SE 6.0mph /  9.7km/h 10.0mph /  16.1km/h 90% 0.00in /  0mm
10:43 65.8 °F /  18.8 °C 62.8 °F /  17.1 °C 29.96in /  1014.4hPa SSE 9.0mph /  14.5km/h 14.0mph /  22.5km/h 90% 0.00in /  0mm
10:48 65.7 °F /  18.7 °C 62.7 °F /  17.1 °C 29.96in /  1014.4hPa SSE 9.0mph /  14.5km/h 12.0mph /  19.3km/h 90% 0.00in /  0mm
10:53 66.0 °F /  18.9 °C 63.3 °F /  17.4 °C 29.95in /  1014.1hPa SSE 4.0mph /  6.4km/h 8.0mph /  12.9km/h 91% 0.00in /  0mm
10:58 66.2 °F /  19 °C 63.2 °F /  17.3 °C 29.96in /  1014.4hPa SSE 11.0mph /  17.7km/h 11.0mph /  17.7km/h 90% 0.00in /  0mm
11:03 66.7 °F /  19.3 °C 63.7 °F /  17.6 °C 29.96in /  1014.4hPa SSE 8.0mph /  12.9km/h 12.0mph /  19.3km/h 90% 0.00in /  0mm
11:08 67.1 °F /  19.5 °C 64.1 °F /  17.8 °C 29.96in /  1014.4hPa South 5.0mph /  8km/h 9.0mph /  14.5km/h 90% 0.00in /  0mm
11:13 67.7 °F /  19.8 °C 64.3 °F /  17.9 °C 29.96in /  1014.4hPa SSW 6.0mph /  9.7km/h 11.0mph /  17.7km/h 89% 0.00in /  0mm
11:18 68.0 °F /  20 °C 64.3 °F /  17.9 °C 29.96in /  1014.4hPa South 9.0mph /  14.5km/h 12.0mph /  19.3km/h 88% 0.00in /  0mm
11:23 68.1 °F /  20.1 °C 64.4 °F /  18 °C 29.95in /  1014.1hPa SE 6.0mph /  9.7km/h 11.0mph /  17.7km/h 88% 0.00in /  0mm
11:28 68.6 °F /  20.3 °C 64.2 °F /  17.9 °C 29.95in /  1014.1hPa SSE 9.0mph /  14.5km/h 14.0mph /  22.5km/h 86% 0.00in /  0mm
11:33 68.6 °F /  20.3 °C 64.2 °F /  17.9 °C 29.95in /  1014.1hPa SSE 4.0mph /  6.4km/h 16.0mph /  25.7km/h 86% 0.00in /  0mm
11:38 68.8 °F /  20.4 °C 64.1 °F /  17.8 °C 29.95in /  1014.1hPa SSW 6.0mph /  9.7km/h 10.0mph /  16.1km/h 85% 0.00in /  0mm
11:43 69.5 °F /  20.8 °C 65.1 °F /  18.4 °C 29.95in /  1014.1hPa SSE 3.0mph /  4.8km/h 12.0mph /  19.3km/h 86% 0.00in /  0mm
11:49 69.5 °F /  20.8 °C 63.8 °F /  17.7 °C 29.95in /  1014.1hPa South 7.0mph /  11.3km/h 13.0mph /  20.9km/h 82% 0.00in /  0mm
11:54 69.6 °F /  20.9 °C 64.2 °F /  17.9 °C 29.94in /  1013.8hPa SSE 8.0mph /  12.9km/h 9.0mph /  14.5km/h 83% 0.00in /  0mm
11:59 69.7 °F /  20.9 °C 64.3 °F /  17.9 °C 29.94in /  1013.8hPa South 8.0mph /  12.9km/h 10.0mph /  16.1km/h 83% 0.00in /  0mm
12:04 70.1 °F /  21.2 °C 63.7 °F /  17.6 °C 29.94in /  1013.8hPa South 9.0mph /  14.5km/h 10.0mph /  16.1km/h 80% 0.00in /  0mm
12:09 70.5 °F /  21.4 °C 65.1 °F /  18.4 °C 29.94in /  1013.8hPa SW 8.0mph /  12.9km/h 8.0mph /  12.9km/h 83% 0.00in /  0mm
12:14 71.0 °F /  21.7 °C 63.4 °F /  17.4 °C 29.93in /  1013.4hPa SW 7.0mph /  11.3km/h 11.0mph /  17.7km/h 77% 0.00in /  0mm
12:19 71.2 °F /  21.8 °C 63.6 °F /  17.6 °C 29.93in /  1013.4hPa SSW 7.0mph /  11.3km/h 12.0mph /  19.3km/h 77% 0.00in /  0mm
12:24 71.2 °F /  21.8 °C 63.3 °F /  17.4 °C 29.93in /  1013.4hPa South 11.0mph /  17.7km/h 13.0mph /  20.9km/h 76% 0.00in /  0mm
12:29 71.0 °F /  21.7 °C 61.9 °F /  16.6 °C 29.93in /  1013.4hPa South 7.0mph /  11.3km/h 15.0mph /  24.1km/h 73% 0.00in /  0mm
12:34 71.6 °F /  22 °C 62.1 °F /  16.7 °C 29.92in /  1013.1hPa South 6.0mph /  9.7km/h 14.0mph /  22.5km/h 72% 0.00in /  0mm
12:39 71.6 °F /  22 °C 62.5 °F /  16.9 °C 29.92in /  1013.1hPa South 6.0mph /  9.7km/h 12.0mph /  19.3km/h 73% 0.00in /  0mm
12:44 71.2 °F /  21.8 °C 62.5 °F /  16.9 °C 29.92in /  1013.1hPa SW 6.0mph /  9.7km/h 9.0mph /  14.5km/h 74% 0.00in /  0mm
12:49 71.9 °F /  22.2 °C 62.8 °F /  17.1 °C 29.92in /  1013.1hPa SSE 12.0mph /  19.3km/h 18.0mph /  29km/h 73% 0.00in /  0mm
12:54 72.3 °F /  22.4 °C 62.4 °F /  16.9 °C 29.92in /  1013.1hPa SW 10.0mph /  16.1km/h 15.0mph /  24.1km/h 71% 0.00in /  0mm
12:59 72.6 °F /  22.6 °C 63.1 °F /  17.3 °C 29.91in /  1012.8hPa SSE 4.0mph /  6.4km/h 13.0mph /  20.9km/h 72% 0.00in /  0mm
13:04 72.6 °F /  22.6 °C 61.0 °F /  16.1 °C 29.92in /  1013.1hPa SSE 8.0mph /  12.9km/h 16.0mph /  25.7km/h 67% 0.00in /  0mm
13:09 72.3 °F /  22.4 °C 62.0 °F /  16.7 °C 29.91in /  1012.8hPa South 5.0mph /  8km/h 9.0mph /  14.5km/h 70% 0.00in /  0mm
13:14 72.9 °F /  22.7 °C 63.8 °F /  17.7 °C 29.91in /  1012.8hPa South 7.0mph /  11.3km/h 12.0mph /  19.3km/h 73% 0.00in /  0mm
13:19 73.1 °F /  22.8 °C 62.3 °F /  16.8 °C 29.91in /  1012.8hPa SE 14.0mph /  22.5km/h 14.0mph /  22.5km/h 69% 0.00in /  0mm
13:24 73.4 °F /  23 °C 62.6 °F /  17 °C 29.90in /  1012.4hPa SE 6.0mph /  9.7km/h 8.0mph /  12.9km/h 69% 0.00in /  0mm
13:29 73.9 °F /  23.3 °C 60.5 °F /  15.8 °C 29.90in /  1012.4hPa SE 13.0mph /  20.9km/h 15.0mph /  24.1km/h 63% 0.00in /  0mm
13:34 74.0 °F /  23.3 °C 60.6 °F /  15.9 °C 29.91in /  1012.8hPa SW 7.0mph /  11.3km/h 13.0mph /  20.9km/h 63% 0.00in /  0mm
13:39 74.4 °F /  23.6 °C 60.5 °F /  15.8 °C 29.90in /  1012.4hPa SSW 7.0mph /  11.3km/h 11.0mph /  17.7km/h 62% 0.00in /  0mm
13:44 74.7 °F /  23.7 °C 58.5 °F /  14.7 °C 29.90in /  1012.4hPa SW 9.0mph /  14.5km/h 15.0mph /  24.1km/h 57% 0.00in /  0mm
13:49 74.4 °F /  23.6 °C 60.5 °F /  15.8 °C 29.90in /  1012.4hPa SSE 10.0mph /  16.1km/h 11.0mph /  17.7km/h 62% 0.00in /  0mm
13:54 75.1 °F /  23.9 °C 61.7 °F /  16.5 °C 29.90in /  1012.4hPa SE 12.0mph /  19.3km/h 12.0mph /  19.3km/h 63% 0.00in /  0mm
14:00 75.1 °F /  23.9 °C 58.3 °F /  14.6 °C 29.89in /  1012.1hPa SW 7.0mph /  11.3km/h 12.0mph /  19.3km/h 56% 0.00in /  0mm
14:05 75.4 °F /  24.1 °C 59.1 °F /  15.1 °C 29.90in /  1012.4hPa SSW 12.0mph /  19.3km/h 16.0mph /  25.7km/h 57% 0.00in /  0mm
14:10 75.1 °F /  23.9 °C 57.8 °F /  14.3 °C 29.89in /  1012.1hPa SE 11.0mph /  17.7km/h 18.0mph /  29km/h 55% 0.00in /  0mm
14:15 75.3 °F /  24.1 °C 58.5 °F /  14.7 °C 29.89in /  1012.1hPa SSW 10.0mph /  16.1km/h 16.0mph /  25.7km/h 56% 0.00in /  0mm
14:20 75.6 °F /  24.2 °C 57.3 °F /  14.1 °C 29.89in /  1012.1hPa SSE 9.0mph /  14.5km/h 13.0mph /  20.9km/h 53% 0.00in /  0mm
14:25 75.4 °F /  24.1 °C 58.1 °F /  14.5 °C 29.89in /  1012.1hPa South 13.0mph /  20.9km/h 14.0mph /  22.5km/h 55% 0.00in /  0mm
14:30 75.6 °F /  24.2 °C 56.8 °F /  13.8 °C 29.88in /  1011.7hPa SW 9.0mph /  14.5km/h 13.0mph /  20.9km/h 52% 0.00in /  0mm
14:35 76.0 °F /  24.4 °C 53.8 °F /  12.1 °C 29.88in /  1011.7hPa South 9.0mph /  14.5km/h 15.0mph /  24.1km/h 46% 0.00in /  0mm
14:40 76.7 °F /  24.8 °C 56.7 °F /  13.7 °C 29.88in /  1011.7hPa SW 7.0mph /  11.3km/h 11.0mph /  17.7km/h 50% 0.00in /  0mm
14:45 76.4 °F /  24.7 °C 54.1 °F /  12.3 °C 29.88in /  1011.7hPa South 14.0mph /  22.5km/h 14.0mph /  22.5km/h 46% 0.00in /  0mm
14:50 75.8 °F /  24.3 °C 53.0 °F /  11.7 °C 29.87in /  1011.4hPa South 9.0mph /  14.5km/h 13.0mph /  20.9km/h 45% 0.00in /  0mm
14:55 76.0 °F /  24.4 °C 53.2 °F /  11.8 °C 29.87in /  1011.4hPa SE 10.0mph /  16.1km/h 19.0mph /  30.6km/h 45% 0.00in /  0mm
14:57 76.1 °F /  24.5 °C 53.8 °F /  12.1 °C 29.87in /  1011.4hPa SE 14.0mph /  22.5km/h 16.0mph /  25.7km/h 46% 0.00in /  0mm
15:02 76.1 °F /  24.5 °C 52.0 °F /  11.1 °C 29.86in /  1011.1hPa SW 8.0mph /  12.9km/h 15.0mph /  24.1km/h 43% 0.00in /  0mm
15:07 75.3 °F /  24.1 °C 52.5 °F /  11.4 °C 29.86in /  1011.1hPa SW 8.0mph /  12.9km/h 14.0mph /  22.5km/h 45% 0.00in /  0mm
15:12 75.7 °F /  24.3 °C 54.1 °F /  12.3 °C 29.86in /  1011.1hPa South 4.0mph /  6.4km/h 12.0mph /  19.3km/h 47% 0.00in /  0mm
15:17 76.2 °F /  24.6 °C 53.3 °F /  11.8 °C 29.87in /  1011.4hPa SSE 10.0mph /  16.1km/h 19.0mph /  30.6km/h 45% 0.00in /  0mm
15:22 76.4 °F /  24.7 °C 52.3 °F /  11.3 °C 29.86in /  1011.1hPa SW 15.0mph /  24.1km/h 15.0mph /  24.1km/h 43% 0.00in /  0mm
15:27 76.5 °F /  24.7 °C 51.7 °F /  10.9 °C 29.86in /  1011.1hPa SSE 6.0mph /  9.7km/h 14.0mph /  22.5km/h 42% 0.00in /  0mm
15:32 76.6 °F /  24.8 °C 52.5 °F /  11.4 °C 29.85in /  1010.7hPa South 8.0mph /  12.9km/h 19.0mph /  30.6km/h 43% 0.00in /  0mm
15:37 76.7 °F /  24.8 °C 51.2 °F /  10.7 °C 29.85in /  1010.7hPa SSW 6.0mph /  9.7km/h 13.0mph /  20.9km/h 41% 0.00in /  0mm
15:42 76.8 °F /  24.9 °C 51.3 °F /  10.7 °C 29.85in /  1010.7hPa South 7.0mph /  11.3km/h 16.0mph /  25.7km/h 41% 0.00in /  0mm
15:48 77.1 °F /  25.1 °C 51.6 °F /  10.9 °C 29.84in /  1010.4hPa SSW 10.0mph /  16.1km/h 15.0mph /  24.1km/h 41% 0.00in /  0mm
15:53 77.5 °F /  25.3 °C 53.3 °F /  11.8 °C 29.84in /  1010.4hPa WSW 10.0mph /  16.1km/h 14.0mph /  22.5km/h 43% 0.00in /  0mm
15:58 77.6 °F /  25.3 °C 52.7 °F /  11.5 °C 29.84in /  1010.4hPa SW 14.0mph /  22.5km/h 14.0mph /  22.5km/h 42% 0.00in /  0mm
16:03 77.3 °F /  25.2 °C 51.1 °F /  10.6 °C 29.84in /  1010.4hPa SW 13.0mph /  20.9km/h 14.0mph /  22.5km/h 40% 0.00in /  0mm
16:08 77.4 °F /  25.2 °C 53.2 °F /  11.8 °C 29.84in /  1010.4hPa SW 7.0mph /  11.3km/h 16.0mph /  25.7km/h 43% 0.00in /  0mm
16:13 77.3 °F /  25.2 °C 52.5 °F /  11.4 °C 29.83in /  1010hPa South 10.0mph /  16.1km/h 13.0mph /  20.9km/h 42% 0.00in /  0mm
16:18 77.1 °F /  25.1 °C 52.3 °F /  11.3 °C 29.84in /  1010.4hPa WSW 13.0mph /  20.9km/h 15.0mph /  24.1km/h 42% 0.00in /  0mm
16:23 76.9 °F /  24.9 °C 51.4 °F /  10.8 °C 29.83in /  1010hPa WSW 8.0mph /  12.9km/h 14.0mph /  22.5km/h 41% 0.00in /  0mm
16:28 77.0 °F /  25 °C 52.2 °F /  11.2 °C 29.83in /  1010hPa South 8.0mph /  12.9km/h 13.0mph /  20.9km/h 42% 0.00in /  0mm
16:33 77.2 °F /  25.1 °C 54.2 °F /  12.3 °C 29.83in /  1010hPa SSE 12.0mph /  19.3km/h 12.0mph /  19.3km/h 45% 0.00in /  0mm
16:38 77.1 °F /  25.1 °C 52.9 °F /  11.6 °C 29.83in /  1010hPa SW 6.0mph /  9.7km/h 15.0mph /  24.1km/h 43% 0.00in /  0mm
16:43 77.6 °F /  25.3 °C 53.4 °F /  11.9 °C 29.82in /  1009.7hPa SW 7.0mph /  11.3km/h 14.0mph /  22.5km/h 43% 0.00in /  0mm
16:48 77.4 °F /  25.2 °C 52.5 °F /  11.4 °C 29.83in /  1010hPa SE 17.0mph /  27.4km/h 17.0mph /  27.4km/h 42% 0.00in /  0mm
16:53 77.4 °F /  25.2 °C 52.5 °F /  11.4 °C 29.82in /  1009.7hPa SSW 7.0mph /  11.3km/h 11.0mph /  17.7km/h 42% 0.00in /  0mm
16:58 77.5 °F /  25.3 °C 53.3 °F /  11.8 °C 29.82in /  1009.7hPa SSE 6.0mph /  9.7km/h 15.0mph /  24.1km/h 43% 0.00in /  0mm
17:03 77.7 °F /  25.4 °C 52.8 °F /  11.6 °C 29.81in /  1009.4hPa WSW 8.0mph /  12.9km/h 14.0mph /  22.5km/h 42% 0.00in /  0mm
17:08 77.5 °F /  25.3 °C 52.6 °F /  11.4 °C 29.81in /  1009.4hPa SW 8.0mph /  12.9km/h 13.0mph /  20.9km/h 42% 0.00in /  0mm
17:13 77.5 °F /  25.3 °C 54.5 °F /  12.5 °C 29.81in /  1009.4hPa South 9.0mph /  14.5km/h 11.0mph /  17.7km/h 45% 0.00in /  0mm
17:18 77.4 °F /  25.2 °C 53.2 °F /  11.8 °C 29.81in /  1009.4hPa South 8.0mph /  12.9km/h 18.0mph /  29km/h 43% 0.00in /  0mm
17:19 77.4 °F /  25.2 °C 53.2 °F /  11.8 °C 29.81in /  1009.4hPa South 9.0mph /  14.5km/h 18.0mph /  29km/h 43% 0.00in /  0mm
17:24 77.4 °F /  25.2 °C 53.2 °F /  11.8 °C 29.81in /  1009.4hPa SW 11.0mph /  17.7km/h 17.0mph /  27.4km/h 43% 0.00in /  0mm
17:29 77.2 °F /  25.1 °C 54.2 °F /  12.3 °C 29.81in /  1009.4hPa SW 11.0mph /  17.7km/h 14.0mph /  22.5km/h 45% 0.00in /  0mm
17:34 77.2 °F /  25.1 °C 53.6 °F /  12 °C 29.80in /  1009hPa SSW 12.0mph /  19.3km/h 16.0mph /  25.7km/h 44% 0.00in /  0mm
17:39 76.6 °F /  24.8 °C 52.5 °F /  11.4 °C 29.81in /  1009.4hPa South 5.0mph /  8km/h 19.0mph /  30.6km/h 43% 0.00in /  0mm
17:44 76.2 °F /  24.6 °C 52.7 °F /  11.5 °C 29.80in /  1009hPa SSW 16.0mph /  25.7km/h 17.0mph /  27.4km/h 44% 0.00in /  0mm
17:49 75.7 °F /  24.3 °C 53.5 °F /  11.9 °C 29.80in /  1009hPa SSW 9.0mph /  14.5km/h 13.0mph /  20.9km/h 46% 0.00in /  0mm
17:54 75.5 °F /  24.2 °C 53.3 °F /  11.8 °C 29.81in /  1009.4hPa SW 7.0mph /  11.3km/h 13.0mph /  20.9km/h 46% 0.00in /  0mm
17:59 75.0 °F /  23.9 °C 52.8 °F /  11.6 °C 29.80in /  1009hPa SW 13.0mph /  20.9km/h 13.0mph /  20.9km/h 46% 0.00in /  0mm
18:04 74.9 °F /  23.8 °C 53.9 °F /  12.2 °C 29.81in /  1009.4hPa SSW 6.0mph /  9.7km/h 16.0mph /  25.7km/h 48% 0.00in /  0mm
18:09 75.1 °F /  23.9 °C 52.9 °F /  11.6 °C 29.81in /  1009.4hPa SW 13.0mph /  20.9km/h 16.0mph /  25.7km/h 46% 0.00in /  0mm
18:14 74.5 °F /  23.6 °C 53.0 °F /  11.7 °C 29.81in /  1009.4hPa SW 9.0mph /  14.5km/h 14.0mph /  22.5km/h 47% 0.00in /  0mm
18:19 73.9 °F /  23.3 °C 54.1 °F /  12.3 °C 29.81in /  1009.4hPa WSW 7.0mph /  11.3km/h 11.0mph /  17.7km/h 50% 0.00in /  0mm
18:24 73.7 °F /  23.2 °C 53.4 °F /  11.9 °C 29.81in /  1009.4hPa SW 6.0mph /  9.7km/h 16.0mph /  25.7km/h 49% 0.00in /  0mm
18:29 74.2 °F /  23.4 °C 53.3 °F /  11.8 °C 29.81in /  1009.4hPa SW 12.0mph /  19.3km/h 12.0mph /  19.3km/h 48% 0.00in /  0mm
18:34 74.5 °F /  23.6 °C 54.1 °F /  12.3 °C 29.81in /  1009.4hPa SW 9.0mph /  14.5km/h 11.0mph /  17.7km/h 49% 0.00in /  0mm
18:39 74.4 °F /  23.6 °C 53.5 °F /  11.9 °C 29.81in /  1009.4hPa SW 10.0mph /  16.1km/h 13.0mph /  20.9km/h 48% 0.00in /  0mm
18:44 74.0 °F /  23.3 °C 54.2 °F /  12.3 °C 29.81in /  1009.4hPa SW 7.0mph /  11.3km/h 10.0mph /  16.1km/h 50% 0.00in /  0mm
18:49 73.8 °F /  23.2 °C 54.0 °F /  12.2 °C 29.81in /  1009.4hPa South 7.0mph /  11.3km/h 12.0mph /  19.3km/h 50% 0.00in /  0mm
18:55 73.7 °F /  23.2 °C 52.8 °F /  11.6 °C 29.81in /  1009.4hPa WSW 10.0mph /  16.1km/h 14.0mph /  22.5km/h 48% 0.00in /  0mm
19:00 73.7 °F /  23.2 °C 53.9 °F /  12.2 °C 29.81in /  1009.4hPa South 5.0mph /  8km/h 11.0mph /  17.7km/h 50% 0.00in /  0mm
19:05 73.9 °F /  23.3 °C 54.1 °F /  12.3 °C 29.81in /  1009.4hPa SSW 6.0mph /  9.7km/h 10.0mph /  16.1km/h 50% 0.00in /  0mm
19:10 73.8 °F /  23.2 °C 54.0 °F /  12.2 °C 29.81in /  1009.4hPa SW 6.0mph /  9.7km/h 12.0mph /  19.3km/h 50% 0.00in /  0mm
19:15 73.3 °F /  22.9 °C 54.1 °F /  12.3 °C 29.81in /  1009.4hPa SW 4.0mph /  6.4km/h 10.0mph /  16.1km/h 51% 0.00in /  0mm
19:20 73.1 °F /  22.8 °C 53.9 °F /  12.2 °C 29.81in /  1009.4hPa SE 9.0mph /  14.5km/h 16.0mph /  25.7km/h 51% 0.00in /  0mm
19:25 72.9 °F /  22.7 °C 53.2 °F /  11.8 °C 29.81in /  1009.4hPa SSW 12.0mph /  19.3km/h 15.0mph /  24.1km/h 50% 0.00in /  0mm
19:30 72.8 °F /  22.7 °C 53.1 °F /  11.7 °C 29.81in /  1009.4hPa South 5.0mph /  8km/h 12.0mph /  19.3km/h 50% 0.00in /  0mm
19:35 73.2 °F /  22.9 °C 53.5 °F /  11.9 °C 29.81in /  1009.4hPa SSW 10.0mph /  16.1km/h 16.0mph /  25.7km/h 50% 0.00in /  0mm
19:40 73.2 °F /  22.9 °C 53.5 °F /  11.9 °C 29.82in /  1009.7hPa SSW 7.0mph /  11.3km/h 16.0mph /  25.7km/h 50% 0.00in /  0mm
19:41 73.2 °F /  22.9 °C 53.5 °F /  11.9 °C 29.82in /  1009.7hPa South 6.0mph /  9.7km/h 16.0mph /  25.7km/h 50% 0.00in /  0mm
19:46 73.0 °F /  22.8 °C 53.3 °F /  11.8 °C 29.81in /  1009.4hPa SW 6.0mph /  9.7km/h 13.0mph /  20.9km/h 50% 0.00in /  0mm
19:51 72.5 °F /  22.5 °C 53.9 °F /  12.2 °C 29.81in /  1009.4hPa WSW 6.0mph /  9.7km/h 11.0mph /  17.7km/h 52% 0.00in /  0mm
19:56 72.2 °F /  22.3 °C 53.6 °F /  12 °C 29.81in /  1009.4hPa WSW 9.0mph /  14.5km/h 13.0mph /  20.9km/h 52% 0.00in /  0mm
20:01 71.8 °F /  22.1 °C 53.8 °F /  12.1 °C 29.81in /  1009.4hPa WSW 10.0mph /  16.1km/h 12.0mph /  19.3km/h 53% 0.00in /  0mm
20:06 71.4 °F /  21.9 °C 53.9 °F /  12.2 °C 29.81in /  1009.4hPa SW 8.0mph /  12.9km/h 12.0mph /  19.3km/h 54% 0.00in /  0mm
20:11 71.1 °F /  21.7 °C 53.6 °F /  12 °C 29.82in /  1009.7hPa WSW 11.0mph /  17.7km/h 12.0mph /  19.3km/h 54% 0.00in /  0mm
20:16 70.8 °F /  21.6 °C 53.3 °F /  11.8 °C 29.82in /  1009.7hPa WSW 6.0mph /  9.7km/h 14.0mph /  22.5km/h 54% 0.00in /  0mm
20:21 70.5 °F /  21.4 °C 52.0 °F /  11.1 °C 29.82in /  1009.7hPa West 13.0mph /  20.9km/h 15.0mph /  24.1km/h 52% 0.00in /  0mm
20:26 70.3 °F /  21.3 °C 50.8 °F /  10.4 °C 29.82in /  1009.7hPa WSW 8.0mph /  12.9km/h 15.0mph /  24.1km/h 50% 0.00in /  0mm
20:31 69.8 °F /  21 °C 50.9 °F /  10.5 °C 29.82in /  1009.7hPa WSW 6.0mph /  9.7km/h 9.0mph /  14.5km/h 51% 0.00in /  0mm
20:36 69.4 °F /  20.8 °C 50.5 °F /  10.3 °C 29.82in /  1009.7hPa SW 10.0mph /  16.1km/h 13.0mph /  20.9km/h 51% 0.00in /  0mm
20:41 69.3 °F /  20.7 °C 48.8 °F /  9.3 °C 29.82in /  1009.7hPa SW 12.0mph /  19.3km/h 12.0mph /  19.3km/h 48% 0.00in /  0mm
20:46 69.0 °F /  20.6 °C 48.5 °F /  9.2 °C 29.82in /  1009.7hPa WSW 6.0mph /  9.7km/h 10.0mph /  16.1km/h 48% 0.00in /  0mm
20:51 68.6 °F /  20.3 °C 48.2 °F /  9 °C 29.82in /  1009.7hPa SW 5.0mph /  8km/h 12.0mph /  19.3km/h 48% 0.00in /  0mm
20:56 68.2 °F /  20.1 °C 48.3 °F /  9.1 °C 29.83in /  1010hPa West 5.0mph /  8km/h 8.0mph /  12.9km/h 49% 0.00in /  0mm
21:01 67.6 °F /  19.8 °C 48.3 °F /  9.1 °C 29.83in /  1010hPa West 3.0mph /  4.8km/h 5.0mph /  8km/h 50% 0.00in /  0mm
21:06 67.2 °F /  19.6 °C 48.5 °F /  9.2 °C 29.83in /  1010hPa West 5.0mph /  8km/h 6.0mph /  9.7km/h 51% 0.00in /  0mm
21:11 66.9 °F /  19.4 °C 47.7 °F /  8.7 °C 29.83in /  1010hPa SW 6.0mph /  9.7km/h 8.0mph /  12.9km/h 50% 0.00in /  0mm
21:16 66.7 °F /  19.3 °C 48.0 °F /  8.9 °C 29.84in /  1010.4hPa West 5.0mph /  8km/h 10.0mph /  16.1km/h 51% 0.00in /  0mm
21:21 66.5 °F /  19.2 °C 47.8 °F /  8.8 °C 29.84in /  1010.4hPa West 5.0mph /  8km/h 8.0mph /  12.9km/h 51% 0.00in /  0mm
21:26 66.4 °F /  19.1 °C 47.2 °F /  8.4 °C 29.84in /  1010.4hPa WSW 8.0mph /  12.9km/h 10.0mph /  16.1km/h 50% 0.00in /  0mm
21:31 66.4 °F /  19.1 °C 47.7 °F /  8.7 °C 29.84in /  1010.4hPa West 5.0mph /  8km/h 12.0mph /  19.3km/h 51% 0.00in /  0mm
21:36 66.1 °F /  18.9 °C 47.5 °F /  8.6 °C 29.84in /  1010.4hPa West 7.0mph /  11.3km/h 8.0mph /  12.9km/h 51% 0.00in /  0mm
21:42 65.9 °F /  18.8 °C 47.3 °F /  8.5 °C 29.84in /  1010.4hPa WSW 5.0mph /  8km/h 8.0mph /  12.9km/h 51% 0.00in /  0mm
21:47 65.6 °F /  18.7 °C 47.5 °F /  8.6 °C 29.85in /  1010.7hPa West 5.0mph /  8km/h 10.0mph /  16.1km/h 52% 0.00in /  0mm
21:48 65.6 °F /  18.7 °C 47.5 °F /  8.6 °C 29.85in /  1010.7hPa West 12.0mph /  19.3km/h 12.0mph /  19.3km/h 52% 0.00in /  0mm
21:53 65.7 °F /  18.7 °C 47.6 °F /  8.7 °C 29.85in /  1010.7hPa WNW 9.0mph /  14.5km/h 12.0mph /  19.3km/h 52% 0.00in /  0mm
21:58 65.4 °F /  18.6 °C 47.3 °F /  8.5 °C 29.86in /  1011.1hPa West 8.0mph /  12.9km/h 12.0mph /  19.3km/h 52% 0.00in /  0mm
22:03 65.1 °F /  18.4 °C 47.1 °F /  8.4 °C 29.86in /  1011.1hPa WNW 3.0mph /  4.8km/h 13.0mph /  20.9km/h 52% 0.00in /  0mm
22:08 64.7 °F /  18.2 °C 47.2 °F /  8.4 °C 29.86in /  1011.1hPa West 6.0mph /  9.7km/h 14.0mph /  22.5km/h 53% 0.00in /  0mm
22:13 64.1 °F /  17.8 °C 47.1 °F /  8.4 °C 29.86in /  1011.1hPa WSW 8.0mph /  12.9km/h 10.0mph /  16.1km/h 54% 0.00in /  0mm
22:18 63.9 °F /  17.7 °C 47.0 °F /  8.3 °C 29.86in /  1011.1hPa WSW 5.0mph /  8km/h 12.0mph /  19.3km/h 54% 0.00in /  0mm
22:23 63.5 °F /  17.5 °C 47.1 °F /  8.4 °C 29.86in /  1011.1hPa West 4.0mph /  6.4km/h 13.0mph /  20.9km/h 55% 0.00in /  0mm
22:28 63.1 °F /  17.3 °C 47.2 °F /  8.4 °C 29.86in /  1011.1hPa WSW 8.0mph /  12.9km/h 9.0mph /  14.5km/h 56% 0.00in /  0mm
22:33 62.7 °F /  17.1 °C 46.8 °F /  8.2 °C 29.86in /  1011.1hPa West 4.0mph /  6.4km/h 7.0mph /  11.3km/h 56% 0.00in /  0mm
22:38 62.5 °F /  16.9 °C 47.1 °F /  8.4 °C 29.87in /  1011.4hPa West 3.0mph /  4.8km/h 9.0mph /  14.5km/h 57% 0.00in /  0mm
22:43 62.3 °F /  16.8 °C 46.9 °F /  8.3 °C 29.87in /  1011.4hPa West 2.0mph /  3.2km/h 9.0mph /  14.5km/h 57% 0.00in /  0mm
22:48 61.9 °F /  16.6 °C 46.5 °F /  8.1 °C 29.87in /  1011.4hPa West 5.0mph /  8km/h 8.0mph /  12.9km/h 57% 0.00in /  0mm
22:53 61.6 °F /  16.4 °C 46.7 °F /  8.2 °C 29.87in /  1011.4hPa West 3.0mph /  4.8km/h 8.0mph /  12.9km/h 58% 0.00in /  0mm
22:58 61.4 °F /  16.3 °C 46.5 °F /  8.1 °C 29.87in /  1011.4hPa WSW 5.0mph /  8km/h 8.0mph /  12.9km/h 58% 0.00in /  0mm
23:03 61.3 °F /  16.3 °C 46.9 °F /  8.3 °C 29.87in /  1011.4hPa West 6.0mph /  9.7km/h 8.0mph /  12.9km/h 59% 0.00in /  0mm
23:08 61.0 °F /  16.1 °C 46.6 °F /  8.1 °C 29.87in /  1011.4hPa West 5.0mph /  8km/h 5.0mph /  8km/h 59% 0.00in /  0mm
23:13 60.8 °F /  16 °C 46.4 °F /  8 °C 29.87in /  1011.4hPa West 3.0mph /  4.8km/h 5.0mph /  8km/h 59% 0.00in /  0mm
23:18 60.6 °F /  15.9 °C 46.7 °F /  8.2 °C 29.87in /  1011.4hPa WSW 9.0mph /  14.5km/h 9.0mph /  14.5km/h 60% 0.00in /  0mm
23:23 60.5 °F /  15.8 °C 46.6 °F /  8.1 °C 29.87in /  1011.4hPa West 3.0mph /  4.8km/h 6.0mph /  9.7km/h 60% 0.00in /  0mm
23:28 60.1 °F /  15.6 °C 46.6 °F /  8.1 °C 29.87in /  1011.4hPa SW 5.0mph /  8km/h 8.0mph /  12.9km/h 61% 0.00in /  0mm
23:33 60.1 °F /  15.6 °C 46.6 °F /  8.1 °C 29.86in /  1011.1hPa SW 3.0mph /  4.8km/h 6.0mph /  9.7km/h 61% 0.00in /  0mm
23:38 59.8 °F /  15.4 °C 46.8 °F /  8.2 °C 29.87in /  1011.4hPa WSW 2.0mph /  3.2km/h 4.0mph /  6.4km/h 62% 0.00in /  0mm
23:43 59.6 °F /  15.3 °C 46.6 °F /  8.1 °C 29.86in /  1011.1hPa West 1.0mph /  1.6km/h 5.0mph /  8km/h 62% 0.00in /  0mm
23:48 59.5 °F /  15.3 °C 46.9 °F /  8.3 °C 29.86in /  1011.1hPa West 8.0mph /  12.9km/h 8.0mph /  12.9km/h 63% 0.00in /  0mm
23:53 59.4 °F /  15.2 °C 46.4 °F /  8 °C 29.86in /  1011.1hPa West 3.0mph /  4.8km/h 6.0mph /  9.7km/h 62% 0.00in /  0mm
23:58 59.2 °F /  15.1 °C 46.6 °F /  8.1 °C 29.86in /  1011.1hPa West 2.0mph /  3.2km/h 6.0mph /  9.7km/h 63% 0.00in /  0mm
Compliments of Weather Underground